sensor_id;sensor_type;location;lat;lon;timestamp;temperature;humidity
57652;DHT22;43480;53.116;6.734;2024-02-14T00:01:53;6.80;99.90
57652;DHT22;43480;53.116;6.734;2024-02-14T00:04:19;6.80;99.90
57652;DHT22;43480;53.116;6.734;2024-02-14T00:06:46;6.80;99.90
57652;DHT22;43480;53.116;6.734;2024-02-14T00:09:11;6.80;99.90
57652;DHT22;43480;53.116;6.734;2024-02-14T00:11:37;6.80;99.90
57652;DHT22;43480;53.116;6.734;2024-02-14T00:14:03;6.80;99.90
57652;DHT22;43480;53.116;6.734;2024-02-14T00:16:29;6.80;99.90
57652;DHT22;43480;53.116;6.734;2024-02-14T00:18:57;6.80;99.90
57652;DHT22;43480;53.116;6.734;2024-02-14T00:21:24;6.80;99.90
57652;DHT22;43480;53.116;6.734;2024-02-14T00:23:50;6.80;99.90
57652;DHT22;43480;53.116;6.734;2024-02-14T00:26:16;6.90;99.90
57652;DHT22;43480;53.116;6.734;2024-02-14T00:28:41;6.90;99.90
57652;DHT22;43480;53.116;6.734;2024-02-14T00:31:07;6.90;99.90
57652;DHT22;43480;53.116;6.734;2024-02-14T00:33:33;6.90;99.90
57652;DHT22;43480;53.116;6.734;2024-02-14T00:35:58;6.90;99.90
57652;DHT22;43480;53.116;6.734;2024-02-14T00:38:24;6.90;99.90
57652;DHT22;43480;53.116;6.734;2024-02-14T00:40:50;6.90;99.90
57652;DHT22;43480;53.116;6.734;2024-02-14T00:43:15;6.90;99.90
57652;DHT22;43480;53.116;6.734;2024-02-14T00:45:41;6.80;99.90
57652;DHT22;43480;53.116;6.734;2024-02-14T00:48:07;6.90;99.90
57652;DHT22;43480;53.116;6.734;2024-02-14T00:50:33;6.90;99.90
57652;DHT22;43480;53.116;6.734;2024-02-14T00:53:03;6.90;99.90
57652;DHT22;43480;53.116;6.734;2024-02-14T00:55:28;6.90;99.90
57652;DHT22;43480;53.116;6.734;2024-02-14T00:57:54;6.90;99.90
57652;DHT22;43480;53.116;6.734;2024-02-14T01:00:20;7.00;99.90
57652;DHT22;43480;53.116;6.734;2024-02-14T01:02:46;6.90;99.90
57652;DHT22;43480;53.116;6.734;2024-02-14T01:05:11;6.90;99.90
57652;DHT22;43480;53.116;6.734;2024-02-14T01:07:37;6.90;99.90
57652;DHT22;43480;53.116;6.734;2024-02-14T01:10:03;7.00;99.90
57652;DHT22;43480;53.116;6.734;2024-02-14T01:12:29;6.90;99.90
57652;DHT22;43480;53.116;6.734;2024-02-14T01:14:57;7.00;99.90
57652;DHT22;43480;53.116;6.734;2024-02-14T01:17:23;7.00;99.90
57652;DHT22;43480;53.116;6.734;2024-02-14T01:19:50;7.00;99.90
57652;DHT22;43480;53.116;6.734;2024-02-14T01:22:16;7.10;99.90
57652;DHT22;43480;53.116;6.734;2024-02-14T01:24:45;7.00;99.90
57652;DHT22;43480;53.116;6.734;2024-02-14T01:27:10;7.10;99.90
57652;DHT22;43480;53.116;6.734;2024-02-14T01:29:36;7.10;99.90
57652;DHT22;43480;53.116;6.734;2024-02-14T01:32:02;7.10;99.90
57652;DHT22;43480;53.116;6.734;2024-02-14T01:34:29;7.10;99.90
57652;DHT22;43480;53.116;6.734;2024-02-14T01:36:55;7.20;99.90
57652;DHT22;43480;53.116;6.734;2024-02-14T01:39:21;7.20;99.90
57652;DHT22;43480;53.116;6.734;2024-02-14T01:41:48;7.20;99.90
57652;DHT22;43480;53.116;6.734;2024-02-14T01:44:18;7.20;99.90
57652;DHT22;43480;53.116;6.734;2024-02-14T01:46:44;7.10;99.90
57652;DHT22;43480;53.116;6.734;2024-02-14T01:49:13;7.20;99.90
57652;DHT22;43480;53.116;6.734;2024-02-14T01:51:40;7.20;99.90
57652;DHT22;43480;53.116;6.734;2024-02-14T01:54:11;7.20;99.90
57652;DHT22;43480;53.116;6.734;2024-02-14T01:56:38;7.20;99.90
57652;DHT22;43480;53.116;6.734;2024-02-14T01:59:03;7.30;99.90
57652;DHT22;43480;53.116;6.734;2024-02-14T02:01:31;7.30;99.90
57652;DHT22;43480;53.116;6.734;2024-02-14T02:03:58;7.30;99.90
57652;DHT22;43480;53.116;6.734;2024-02-14T02:06:24;7.30;99.90
57652;DHT22;43480;53.116;6.734;2024-02-14T02:08:52;7.30;99.90
57652;DHT22;43480;53.116;6.734;2024-02-14T02:11:18;7.40;99.90
57652;DHT22;43480;53.116;6.734;2024-02-14T02:13:44;7.30;99.90
57652;DHT22;43480;53.116;6.734;2024-02-14T02:16:10;7.40;99.90
57652;DHT22;43480;53.116;6.734;2024-02-14T02:18:35;7.40;99.90
57652;DHT22;43480;53.116;6.734;2024-02-14T02:21:02;7.40;99.90
57652;DHT22;43480;53.116;6.734;2024-02-14T02:23:35;7.40;99.90
57652;DHT22;43480;53.116;6.734;2024-02-14T02:26:01;7.40;99.90
57652;DHT22;43480;53.116;6.734;2024-02-14T02:28:27;7.40;99.90
57652;DHT22;43480;53.116;6.734;2024-02-14T02:30:53;7.40;99.90
57652;DHT22;43480;53.116;6.734;2024-02-14T02:33:21;7.40;99.90
57652;DHT22;43480;53.116;6.734;2024-02-14T02:35:48;7.50;99.90
57652;DHT22;43480;53.116;6.734;2024-02-14T02:38:16;7.50;99.90
57652;DHT22;43480;53.116;6.734;2024-02-14T02:40:43;7.50;99.90
57652;DHT22;43480;53.116;6.734;2024-02-14T02:43:08;7.50;99.90
57652;DHT22;43480;53.116;6.734;2024-02-14T02:45:35;7.50;99.90
57652;DHT22;43480;53.116;6.734;2024-02-14T02:48:01;7.60;99.90
57652;DHT22;43480;53.116;6.734;2024-02-14T02:50:28;7.60;99.90
57652;DHT22;43480;53.116;6.734;2024-02-14T02:52:54;7.60;99.90
57652;DHT22;43480;53.116;6.734;2024-02-14T02:55:20;7.60;99.90
57652;DHT22;43480;53.116;6.734;2024-02-14T02:57:46;7.60;99.90
57652;DHT22;43480;53.116;6.734;2024-02-14T03:00:12;7.60;99.90
57652;DHT22;43480;53.116;6.734;2024-02-14T03:02:39;7.60;99.90
57652;DHT22;43480;53.116;6.734;2024-02-14T03:05:10;7.60;99.90
57652;DHT22;43480;53.116;6.734;2024-02-14T03:07:46;7.70;99.90
57652;DHT22;43480;53.116;6.734;2024-02-14T03:10:14;7.70;99.90
57652;DHT22;43480;53.116;6.734;2024-02-14T03:12:40;7.70;99.90
57652;DHT22;43480;53.116;6.734;2024-02-14T03:15:06;7.80;99.90
57652;DHT22;43480;53.116;6.734;2024-02-14T03:17:35;7.80;99.90
57652;DHT22;43480;53.116;6.734;2024-02-14T03:20:01;7.80;99.90
57652;DHT22;43480;53.116;6.734;2024-02-14T03:22:27;7.80;99.90
57652;DHT22;43480;53.116;6.734;2024-02-14T03:24:53;7.80;99.90
57652;DHT22;43480;53.116;6.734;2024-02-14T03:27:18;7.80;99.90
57652;DHT22;43480;53.116;6.734;2024-02-14T03:29:45;7.90;99.90
57652;DHT22;43480;53.116;6.734;2024-02-14T03:32:12;7.90;99.90
57652;DHT22;43480;53.116;6.734;2024-02-14T03:34:38;7.90;99.90
57652;DHT22;43480;53.116;6.734;2024-02-14T03:37:05;7.90;99.90
57652;DHT22;43480;53.116;6.734;2024-02-14T03:39:32;8.00;99.90
57652;DHT22;43480;53.116;6.734;2024-02-14T03:41:58;8.00;99.90
57652;DHT22;43480;53.116;6.734;2024-02-14T03:44:26;8.00;99.90
57652;DHT22;43480;53.116;6.734;2024-02-14T03:46:52;8.00;99.90
57652;DHT22;43480;53.116;6.734;2024-02-14T03:49:18;8.10;99.90
57652;DHT22;43480;53.116;6.734;2024-02-14T03:51:45;8.10;99.90
57652;DHT22;43480;53.116;6.734;2024-02-14T03:54:11;8.10;99.90
57652;DHT22;43480;53.116;6.734;2024-02-14T03:56:37;8.10;99.90
57652;DHT22;43480;53.116;6.734;2024-02-14T03:59:03;8.20;99.90
57652;DHT22;43480;53.116;6.734;2024-02-14T04:01:31;8.20;99.90
57652;DHT22;43480;53.116;6.734;2024-02-14T04:03:57;8.20;99.90
57652;DHT22;43480;53.116;6.734;2024-02-14T04:06:22;8.30;99.90
57652;DHT22;43480;53.116;6.734;2024-02-14T04:08:48;8.30;99.90
57652;DHT22;43480;53.116;6.734;2024-02-14T04:11:14;8.30;99.90
57652;DHT22;43480;53.116;6.734;2024-02-14T04:13:40;8.40;99.90
57652;DHT22;43480;53.116;6.734;2024-02-14T04:16:06;8.40;99.90
57652;DHT22;43480;53.116;6.734;2024-02-14T04:18:32;8.40;99.90
57652;DHT22;43480;53.116;6.734;2024-02-14T04:20:58;8.50;99.90
57652;DHT22;43480;53.116;6.734;2024-02-14T04:23:24;8.50;99.90
57652;DHT22;43480;53.116;6.734;2024-02-14T04:25:51;8.60;99.90
57652;DHT22;43480;53.116;6.734;2024-02-14T04:28:16;8.60;99.90
57652;DHT22;43480;53.116;6.734;2024-02-14T04:30:42;8.60;99.90
57652;DHT22;43480;53.116;6.734;2024-02-14T04:33:08;8.60;99.90
57652;DHT22;43480;53.116;6.734;2024-02-14T04:35:34;8.60;99.90
57652;DHT22;43480;53.116;6.734;2024-02-14T04:38:00;8.60;99.90
57652;DHT22;43480;53.116;6.734;2024-02-14T04:40:26;8.70;99.90
57652;DHT22;43480;53.116;6.734;2024-02-14T04:42:52;8.70;99.90
57652;DHT22;43480;53.116;6.734;2024-02-14T04:45:18;8.70;99.90
57652;DHT22;43480;53.116;6.734;2024-02-14T04:47:43;8.70;99.90
57652;DHT22;43480;53.116;6.734;2024-02-14T04:50:10;8.80;99.90
57652;DHT22;43480;53.116;6.734;2024-02-14T04:52:35;8.80;99.90
57652;DHT22;43480;53.116;6.734;2024-02-14T04:55:01;8.80;99.90
57652;DHT22;43480;53.116;6.734;2024-02-14T04:57:27;8.90;99.90
57652;DHT22;43480;53.116;6.734;2024-02-14T04:59:52;8.90;99.90
57652;DHT22;43480;53.116;6.734;2024-02-14T05:02:18;8.90;99.90
57652;DHT22;43480;53.116;6.734;2024-02-14T05:04:44;9.00;99.90
57652;DHT22;43480;53.116;6.734;2024-02-14T05:07:09;9.00;99.90
57652;DHT22;43480;53.116;6.734;2024-02-14T05:09:35;9.00;99.90
57652;DHT22;43480;53.116;6.734;2024-02-14T05:12:00;9.00;99.90
57652;DHT22;43480;53.116;6.734;2024-02-14T05:14:26;9.10;99.90
57652;DHT22;43480;53.116;6.734;2024-02-14T05:16:56;9.10;99.90
57652;DHT22;43480;53.116;6.734;2024-02-14T05:19:22;9.10;99.90
57652;DHT22;43480;53.116;6.734;2024-02-14T05:21:48;9.10;99.90
57652;DHT22;43480;53.116;6.734;2024-02-14T05:24:14;9.10;99.90
57652;DHT22;43480;53.116;6.734;2024-02-14T05:26:40;9.20;99.90
57652;DHT22;43480;53.116;6.734;2024-02-14T05:29:05;9.20;99.90
57652;DHT22;43480;53.116;6.734;2024-02-14T05:31:43;9.20;99.90
57652;DHT22;43480;53.116;6.734;2024-02-14T05:34:09;9.30;99.90
57652;DHT22;43480;53.116;6.734;2024-02-14T05:36:35;9.30;99.90
57652;DHT22;43480;53.116;6.734;2024-02-14T05:39:02;9.20;99.90
57652;DHT22;43480;53.116;6.734;2024-02-14T05:41:27;9.30;99.90
57652;DHT22;43480;53.116;6.734;2024-02-14T05:43:53;9.30;99.90
57652;DHT22;43480;53.116;6.734;2024-02-14T05:46:19;9.30;99.90
57652;DHT22;43480;53.116;6.734;2024-02-14T05:48:46;9.30;99.90
57652;DHT22;43480;53.116;6.734;2024-02-14T05:51:13;9.40;99.90
57652;DHT22;43480;53.116;6.734;2024-02-14T05:53:39;9.40;99.90
57652;DHT22;43480;53.116;6.734;2024-02-14T05:56:05;9.30;99.90
57652;DHT22;43480;53.116;6.734;2024-02-14T05:58:31;9.40;99.90
57652;DHT22;43480;53.116;6.734;2024-02-14T06:00:57;9.40;99.90
57652;DHT22;43480;53.116;6.734;2024-02-14T06:03:23;9.50;99.90
57652;DHT22;43480;53.116;6.734;2024-02-14T06:05:48;9.50;99.90
57652;DHT22;43480;53.116;6.734;2024-02-14T06:08:14;9.50;99.90
57652;DHT22;43480;53.116;6.734;2024-02-14T06:10:39;9.50;99.90
57652;DHT22;43480;53.116;6.734;2024-02-14T06:13:05;9.50;99.90
57652;DHT22;43480;53.116;6.734;2024-02-14T06:15:31;9.50;99.90
57652;DHT22;43480;53.116;6.734;2024-02-14T06:17:56;9.50;99.90
57652;DHT22;43480;53.116;6.734;2024-02-14T06:20:23;9.50;99.90
57652;DHT22;43480;53.116;6.734;2024-02-14T06:22:48;9.50;99.90
57652;DHT22;43480;53.116;6.734;2024-02-14T06:25:14;9.50;99.90
57652;DHT22;43480;53.116;6.734;2024-02-14T06:27:41;9.60;99.90
57652;DHT22;43480;53.116;6.734;2024-02-14T06:30:08;9.60;99.90
57652;DHT22;43480;53.116;6.734;2024-02-14T06:32:34;9.60;99.90
57652;DHT22;43480;53.116;6.734;2024-02-14T06:34:59;9.70;99.90
57652;DHT22;43480;53.116;6.734;2024-02-14T06:37:25;9.70;99.90
57652;DHT22;43480;53.116;6.734;2024-02-14T06:39:51;9.70;99.90
57652;DHT22;43480;53.116;6.734;2024-02-14T06:42:17;9.70;99.90
57652;DHT22;43480;53.116;6.734;2024-02-14T06:44:43;9.70;99.90
57652;DHT22;43480;53.116;6.734;2024-02-14T06:47:08;9.70;99.90
57652;DHT22;43480;53.116;6.734;2024-02-14T06:49:34;9.80;99.90
57652;DHT22;43480;53.116;6.734;2024-02-14T06:52:00;9.80;99.90
57652;DHT22;43480;53.116;6.734;2024-02-14T06:54:26;9.80;99.90
57652;DHT22;43480;53.116;6.734;2024-02-14T06:56:52;9.80;99.90
57652;DHT22;43480;53.116;6.734;2024-02-14T06:59:17;9.90;99.90
57652;DHT22;43480;53.116;6.734;2024-02-14T07:01:43;9.80;99.90
57652;DHT22;43480;53.116;6.734;2024-02-14T07:04:09;9.90;99.90
57652;DHT22;43480;53.116;6.734;2024-02-14T07:06:35;9.90;99.90
57652;DHT22;43480;53.116;6.734;2024-02-14T07:09:01;9.90;99.90
57652;DHT22;43480;53.116;6.734;2024-02-14T07:11:27;9.90;99.90
57652;DHT22;43480;53.116;6.734;2024-02-14T07:13:52;9.90;99.90
57652;DHT22;43480;53.116;6.734;2024-02-14T07:16:18;9.90;99.90
57652;DHT22;43480;53.116;6.734;2024-02-14T07:18:44;9.90;99.90
57652;DHT22;43480;53.116;6.734;2024-02-14T07:21:10;9.90;99.90
57652;DHT22;43480;53.116;6.734;2024-02-14T07:23:36;9.90;99.90
57652;DHT22;43480;53.116;6.734;2024-02-14T07:26:02;9.90;99.90
57652;DHT22;43480;53.116;6.734;2024-02-14T07:28:27;9.90;99.90
57652;DHT22;43480;53.116;6.734;2024-02-14T07:30:53;9.90;99.90
57652;DHT22;43480;53.116;6.734;2024-02-14T07:33:19;10.00;99.90
57652;DHT22;43480;53.116;6.734;2024-02-14T07:35:44;10.00;99.90
57652;DHT22;43480;53.116;6.734;2024-02-14T07:38:12;10.00;99.90
57652;DHT22;43480;53.116;6.734;2024-02-14T07:40:38;10.00;99.90
57652;DHT22;43480;53.116;6.734;2024-02-14T07:43:04;10.00;99.90
57652;DHT22;43480;53.116;6.734;2024-02-14T07:45:32;10.00;99.90
57652;DHT22;43480;53.116;6.734;2024-02-14T07:47:58;10.00;99.90
57652;DHT22;43480;53.116;6.734;2024-02-14T07:50:24;10.00;99.90
57652;DHT22;43480;53.116;6.734;2024-02-14T07:52:49;10.10;99.90
57652;DHT22;43480;53.116;6.734;2024-02-14T07:55:15;10.10;99.90
57652;DHT22;43480;53.116;6.734;2024-02-14T07:57:41;10.10;99.90
57652;DHT22;43480;53.116;6.734;2024-02-14T08:00:08;10.20;99.90
57652;DHT22;43480;53.116;6.734;2024-02-14T08:02:34;10.20;99.90
57652;DHT22;43480;53.116;6.734;2024-02-14T08:05:01;10.20;99.90
57652;DHT22;43480;53.116;6.734;2024-02-14T08:07:26;10.30;99.90
57652;DHT22;43480;53.116;6.734;2024-02-14T08:09:52;10.30;99.90
57652;DHT22;43480;53.116;6.734;2024-02-14T08:12:18;10.30;99.90
57652;DHT22;43480;53.116;6.734;2024-02-14T08:14:44;10.30;99.90
57652;DHT22;43480;53.116;6.734;2024-02-14T08:17:10;10.30;99.90
57652;DHT22;43480;53.116;6.734;2024-02-14T08:19:36;10.40;99.90
57652;DHT22;43480;53.116;6.734;2024-02-14T08:22:01;10.30;99.90
57652;DHT22;43480;53.116;6.734;2024-02-14T08:24:28;10.40;99.90
57652;DHT22;43480;53.116;6.734;2024-02-14T08:26:54;10.40;99.90
57652;DHT22;43480;53.116;6.734;2024-02-14T08:29:20;10.40;99.90
57652;DHT22;43480;53.116;6.734;2024-02-14T08:31:46;10.40;99.90
57652;DHT22;43480;53.116;6.734;2024-02-14T08:34:12;10.50;99.90
57652;DHT22;43480;53.116;6.734;2024-02-14T08:36:37;10.50;99.90
57652;DHT22;43480;53.116;6.734;2024-02-14T08:39:10;10.60;99.90
57652;DHT22;43480;53.116;6.734;2024-02-14T08:41:37;10.50;99.90
57652;DHT22;43480;53.116;6.734;2024-02-14T08:44:02;10.60;99.90
57652;DHT22;43480;53.116;6.734;2024-02-14T08:46:30;10.60;99.90
57652;DHT22;43480;53.116;6.734;2024-02-14T08:48:56;10.60;99.90
57652;DHT22;43480;53.116;6.734;2024-02-14T08:51:21;10.60;99.90
57652;DHT22;43480;53.116;6.734;2024-02-14T08:53:48;10.60;99.90
57652;DHT22;43480;53.116;6.734;2024-02-14T08:56:13;10.60;99.90
57652;DHT22;43480;53.116;6.734;2024-02-14T08:58:39;10.60;99.90
57652;DHT22;43480;53.116;6.734;2024-02-14T09:01:05;10.60;99.90
57652;DHT22;43480;53.116;6.734;2024-02-14T09:03:32;10.60;99.90
57652;DHT22;43480;53.116;6.734;2024-02-14T09:05:58;10.60;99.90
57652;DHT22;43480;53.116;6.734;2024-02-14T09:08:24;10.60;99.90
57652;DHT22;43480;53.116;6.734;2024-02-14T09:10:52;10.70;99.90
57652;DHT22;43480;53.116;6.734;2024-02-14T09:13:18;10.70;99.90
57652;DHT22;43480;53.116;6.734;2024-02-14T09:15:43;10.80;99.90
57652;DHT22;43480;53.116;6.734;2024-02-14T09:18:09;10.80;99.90
57652;DHT22;43480;53.116;6.734;2024-02-14T09:20:35;10.80;99.90
57652;DHT22;43480;53.116;6.734;2024-02-14T09:23:03;10.90;99.90
57652;DHT22;43480;53.116;6.734;2024-02-14T09:25:29;10.90;99.90
57652;DHT22;43480;53.116;6.734;2024-02-14T09:27:54;10.90;99.90
57652;DHT22;43480;53.116;6.734;2024-02-14T09:30:20;11.00;99.90
57652;DHT22;43480;53.116;6.734;2024-02-14T09:32:46;11.00;99.90
57652;DHT22;43480;53.116;6.734;2024-02-14T09:35:13;10.90;99.90
57652;DHT22;43480;53.116;6.734;2024-02-14T09:37:40;11.00;99.90
57652;DHT22;43480;53.116;6.734;2024-02-14T09:40:06;11.00;99.90
57652;DHT22;43480;53.116;6.734;2024-02-14T09:42:38;11.00;99.90
57652;DHT22;43480;53.116;6.734;2024-02-14T09:45:09;11.00;99.90
57652;DHT22;43480;53.116;6.734;2024-02-14T09:47:35;11.00;99.90
57652;DHT22;43480;53.116;6.734;2024-02-14T09:50:02;11.00;99.90
57652;DHT22;43480;53.116;6.734;2024-02-14T09:52:29;11.10;99.90
57652;DHT22;43480;53.116;6.734;2024-02-14T09:54:57;11.10;99.90
57652;DHT22;43480;53.116;6.734;2024-02-14T09:57:23;11.10;99.90
57652;DHT22;43480;53.116;6.734;2024-02-14T09:59:50;11.10;99.90
57652;DHT22;43480;53.116;6.734;2024-02-14T10:02:17;11.10;99.90
57652;DHT22;43480;53.116;6.734;2024-02-14T10:04:43;11.10;99.90
57652;DHT22;43480;53.116;6.734;2024-02-14T10:07:09;11.20;99.90
57652;DHT22;43480;53.116;6.734;2024-02-14T10:09:41;11.20;99.90
57652;DHT22;43480;53.116;6.734;2024-02-14T10:12:10;11.20;99.90
57652;DHT22;43480;53.116;6.734;2024-02-14T10:14:38;11.20;99.90
57652;DHT22;43480;53.116;6.734;2024-02-14T10:17:04;11.20;99.90
57652;DHT22;43480;53.116;6.734;2024-02-14T10:19:30;11.30;99.90
57652;DHT22;43480;53.116;6.734;2024-02-14T10:21:57;11.20;99.90
57652;DHT22;43480;53.116;6.734;2024-02-14T10:24:27;11.30;99.90
57652;DHT22;43480;53.116;6.734;2024-02-14T10:26:53;11.30;99.90
57652;DHT22;43480;53.116;6.734;2024-02-14T10:29:22;11.30;99.90
57652;DHT22;43480;53.116;6.734;2024-02-14T10:31:48;11.30;99.90
57652;DHT22;43480;53.116;6.734;2024-02-14T10:34:14;11.30;99.90
57652;DHT22;43480;53.116;6.734;2024-02-14T10:36:43;11.30;99.90
57652;DHT22;43480;53.116;6.734;2024-02-14T10:39:11;11.30;99.90
57652;DHT22;43480;53.116;6.734;2024-02-14T10:41:36;11.30;99.90
57652;DHT22;43480;53.116;6.734;2024-02-14T10:44:05;11.30;99.90
57652;DHT22;43480;53.116;6.734;2024-02-14T10:46:37;11.40;99.90
57652;DHT22;43480;53.116;6.734;2024-02-14T10:49:04;11.40;99.90
57652;DHT22;43480;53.116;6.734;2024-02-14T10:51:31;11.40;99.90
57652;DHT22;43480;53.116;6.734;2024-02-14T10:53:58;11.40;99.90
57652;DHT22;43480;53.116;6.734;2024-02-14T10:56:28;11.40;99.90
57652;DHT22;43480;53.116;6.734;2024-02-14T10:58:56;11.40;99.90
57652;DHT22;43480;53.116;6.734;2024-02-14T11:01:25;11.40;99.90
57652;DHT22;43480;53.116;6.734;2024-02-14T11:03:53;11.30;99.90
57652;DHT22;43480;53.116;6.734;2024-02-14T11:06:21;11.40;99.90
57652;DHT22;43480;53.116;6.734;2024-02-14T11:09:03;11.40;99.90
57652;DHT22;43480;53.116;6.734;2024-02-14T11:11:33;11.40;99.90
57652;DHT22;43480;53.116;6.734;2024-02-14T11:13:59;11.30;99.90
57652;DHT22;43480;53.116;6.734;2024-02-14T11:16:30;11.30;99.90
57652;DHT22;43480;53.116;6.734;2024-02-14T11:19:11;11.30;99.90
57652;DHT22;43480;53.116;6.734;2024-02-14T11:21:44;11.30;99.90
57652;DHT22;43480;53.116;6.734;2024-02-14T11:24:12;11.30;99.90
57652;DHT22;43480;53.116;6.734;2024-02-14T11:26:51;11.30;99.90
57652;DHT22;43480;53.116;6.734;2024-02-14T11:29:18;11.40;99.90
57652;DHT22;43480;53.116;6.734;2024-02-14T11:31:47;11.40;99.90
57652;DHT22;43480;53.116;6.734;2024-02-14T11:34:16;11.40;99.90
57652;DHT22;43480;53.116;6.734;2024-02-14T11:36:43;11.40;99.90
57652;DHT22;43480;53.116;6.734;2024-02-14T11:39:10;11.50;99.90
57652;DHT22;43480;53.116;6.734;2024-02-14T11:41:37;11.50;99.90
57652;DHT22;43480;53.116;6.734;2024-02-14T11:44:04;11.50;99.90
57652;DHT22;43480;53.116;6.734;2024-02-14T11:46:34;11.60;99.90
57652;DHT22;43480;53.116;6.734;2024-02-14T11:49:01;11.60;99.90
57652;DHT22;43480;53.116;6.734;2024-02-14T11:51:32;11.60;99.90
57652;DHT22;43480;53.116;6.734;2024-02-14T11:53:59;11.60;99.90
57652;DHT22;43480;53.116;6.734;2024-02-14T11:56:34;11.60;99.90
57652;DHT22;43480;53.116;6.734;2024-02-14T11:59:05;11.60;99.90
57652;DHT22;43480;53.116;6.734;2024-02-14T12:01:35;11.70;99.90
57652;DHT22;43480;53.116;6.734;2024-02-14T12:04:01;11.60;99.90
57652;DHT22;43480;53.116;6.734;2024-02-14T12:06:28;11.60;99.90
57652;DHT22;43480;53.116;6.734;2024-02-14T12:08:55;11.60;99.90
57652;DHT22;43480;53.116;6.734;2024-02-14T12:11:21;11.70;99.90
57652;DHT22;43480;53.116;6.734;2024-02-14T12:13:50;11.60;99.90
57652;DHT22;43480;53.116;6.734;2024-02-14T12:16:16;11.60;99.90
57652;DHT22;43480;53.116;6.734;2024-02-14T12:18:41;11.60;99.90
57652;DHT22;43480;53.116;6.734;2024-02-14T12:21:07;11.60;99.90
57652;DHT22;43480;53.116;6.734;2024-02-14T12:23:33;11.70;99.90
57652;DHT22;43480;53.116;6.734;2024-02-14T12:26:03;11.70;99.90
57652;DHT22;43480;53.116;6.734;2024-02-14T12:28:30;11.70;99.90
57652;DHT22;43480;53.116;6.734;2024-02-14T12:30:57;11.70;99.90
57652;DHT22;43480;53.116;6.734;2024-02-14T12:33:24;11.70;99.90
57652;DHT22;43480;53.116;6.734;2024-02-14T12:35:51;11.70;99.90
57652;DHT22;43480;53.116;6.734;2024-02-14T12:38:19;11.70;99.90
57652;DHT22;43480;53.116;6.734;2024-02-14T12:40:45;11.70;99.90
57652;DHT22;43480;53.116;6.734;2024-02-14T12:43:12;11.70;99.90
57652;DHT22;43480;53.116;6.734;2024-02-14T12:45:39;11.70;99.90
57652;DHT22;43480;53.116;6.734;2024-02-14T12:48:06;11.60;99.90
57652;DHT22;43480;53.116;6.734;2024-02-14T12:50:33;11.60;99.90
57652;DHT22;43480;53.116;6.734;2024-02-14T12:53:09;11.60;99.90
57652;DHT22;43480;53.116;6.734;2024-02-14T12:55:35;11.70;99.90
57652;DHT22;43480;53.116;6.734;2024-02-14T12:58:01;11.60;99.90
57652;DHT22;43480;53.116;6.734;2024-02-14T13:00:27;11.60;99.90
57652;DHT22;43480;53.116;6.734;2024-02-14T13:02:54;11.70;99.90
57652;DHT22;43480;53.116;6.734;2024-02-14T13:05:20;11.60;99.90
57652;DHT22;43480;53.116;6.734;2024-02-14T13:07:46;11.60;99.90
57652;DHT22;43480;53.116;6.734;2024-02-14T13:10:12;11.70;99.90
57652;DHT22;43480;53.116;6.734;2024-02-14T13:12:38;11.70;99.90
57652;DHT22;43480;53.116;6.734;2024-02-14T13:15:08;11.70;99.90
57652;DHT22;43480;53.116;6.734;2024-02-14T13:17:34;11.60;99.90
57652;DHT22;43480;53.116;6.734;2024-02-14T13:20:00;11.60;99.90
57652;DHT22;43480;53.116;6.734;2024-02-14T13:22:26;11.60;99.90
57652;DHT22;43480;53.116;6.734;2024-02-14T13:24:51;11.60;99.90
57652;DHT22;43480;53.116;6.734;2024-02-14T13:27:17;11.60;99.90
57652;DHT22;43480;53.116;6.734;2024-02-14T13:29:45;11.60;99.90
57652;DHT22;43480;53.116;6.734;2024-02-14T13:32:11;11.70;99.90
57652;DHT22;43480;53.116;6.734;2024-02-14T13:34:36;11.70;99.90
57652;DHT22;43480;53.116;6.734;2024-02-14T13:37:02;11.80;99.90
57652;DHT22;43480;53.116;6.734;2024-02-14T13:39:28;11.70;99.90
57652;DHT22;43480;53.116;6.734;2024-02-14T13:41:54;11.70;99.90
57652;DHT22;43480;53.116;6.734;2024-02-14T13:44:23;11.70;99.90
57652;DHT22;43480;53.116;6.734;2024-02-14T13:46:50;11.70;99.90
57652;DHT22;43480;53.116;6.734;2024-02-14T13:49:15;11.70;99.90
57652;DHT22;43480;53.116;6.734;2024-02-14T13:51:47;11.60;99.90
57652;DHT22;43480;53.116;6.734;2024-02-14T13:54:13;11.60;99.90
57652;DHT22;43480;53.116;6.734;2024-02-14T13:56:38;11.60;99.90
57652;DHT22;43480;53.116;6.734;2024-02-14T13:59:04;11.60;99.90
57652;DHT22;43480;53.116;6.734;2024-02-14T14:01:30;11.60;99.90
57652;DHT22;43480;53.116;6.734;2024-02-14T14:03:55;11.60;99.90
57652;DHT22;43480;53.116;6.734;2024-02-14T14:06:23;11.60;99.90
57652;DHT22;43480;53.116;6.734;2024-02-14T14:08:52;11.60;99.90
57652;DHT22;43480;53.116;6.734;2024-02-14T14:11:18;11.60;99.90
57652;DHT22;43480;53.116;6.734;2024-02-14T14:13:44;11.60;99.90
57652;DHT22;43480;53.116;6.734;2024-02-14T14:16:09;11.70;99.90
57652;DHT22;43480;53.116;6.734;2024-02-14T14:18:36;11.60;99.90
57652;DHT22;43480;53.116;6.734;2024-02-14T14:21:02;11.70;99.90
57652;DHT22;43480;53.116;6.734;2024-02-14T14:23:29;11.70;99.90
57652;DHT22;43480;53.116;6.734;2024-02-14T14:25:54;11.70;99.90
57652;DHT22;43480;53.116;6.734;2024-02-14T14:28:20;11.70;99.90
57652;DHT22;43480;53.116;6.734;2024-02-14T14:30:51;11.70;99.90
57652;DHT22;43480;53.116;6.734;2024-02-14T14:33:16;11.60;99.90
57652;DHT22;43480;53.116;6.734;2024-02-14T14:35:42;11.60;99.90
57652;DHT22;43480;53.116;6.734;2024-02-14T14:38:08;11.60;99.90
57652;DHT22;43480;53.116;6.734;2024-02-14T14:40:34;11.60;99.90
57652;DHT22;43480;53.116;6.734;2024-02-14T14:42:59;11.60;99.90
57652;DHT22;43480;53.116;6.734;2024-02-14T14:45:26;11.60;99.90
57652;DHT22;43480;53.116;6.734;2024-02-14T14:47:53;11.50;99.90
57652;DHT22;43480;53.116;6.734;2024-02-14T14:50:19;11.60;99.90
57652;DHT22;43480;53.116;6.734;2024-02-14T14:52:45;11.60;99.90
57652;DHT22;43480;53.116;6.734;2024-02-14T14:55:11;11.60;99.90
57652;DHT22;43480;53.116;6.734;2024-02-14T14:57:37;11.60;99.90
57652;DHT22;43480;53.116;6.734;2024-02-14T15:00:10;11.60;99.90
57652;DHT22;43480;53.116;6.734;2024-02-14T15:02:39;11.60;99.90
57652;DHT22;43480;53.116;6.734;2024-02-14T15:05:11;11.60;99.90
57652;DHT22;43480;53.116;6.734;2024-02-14T15:07:38;11.60;99.90
57652;DHT22;43480;53.116;6.734;2024-02-14T15:10:05;11.60;99.90
57652;DHT22;43480;53.116;6.734;2024-02-14T15:12:31;11.60;99.90
57652;DHT22;43480;53.116;6.734;2024-02-14T15:14:56;11.60;99.90
57652;DHT22;43480;53.116;6.734;2024-02-14T15:17:22;11.60;99.90
57652;DHT22;43480;53.116;6.734;2024-02-14T15:19:49;11.60;99.90
57652;DHT22;43480;53.116;6.734;2024-02-14T15:22:15;11.60;99.90
57652;DHT22;43480;53.116;6.734;2024-02-14T15:24:41;11.60;99.90
57652;DHT22;43480;53.116;6.734;2024-02-14T15:27:08;11.60;99.90
57652;DHT22;43480;53.116;6.734;2024-02-14T15:29:39;11.60;99.90
57652;DHT22;43480;53.116;6.734;2024-02-14T15:32:23;11.60;99.90
57652;DHT22;43480;53.116;6.734;2024-02-14T15:35:07;11.60;99.90